createdAt,value
2023-04-08T00:00:19.984Z,3.33
2023-04-08T00:02:51.275Z,3.17
2023-04-08T00:05:30.090Z,2.70
2023-04-08T00:08:04.358Z,3.30
2023-04-08T00:10:37.236Z,3.33
2023-04-08T00:13:07.764Z,3.40
2023-04-08T00:15:44.344Z,3.50
2023-04-08T00:18:13.217Z,3.57
2023-04-08T00:20:41.584Z,3.80
2023-04-08T00:23:12.198Z,3.70
2023-04-08T00:25:41.761Z,3.90
2023-04-08T00:28:11.191Z,3.90
2023-04-08T00:30:40.731Z,3.57
2023-04-08T00:33:12.944Z,3.80
2023-04-08T00:35:41.081Z,3.77
2023-04-08T00:38:10.336Z,4.20
2023-04-08T00:40:39.197Z,3.77
2023-04-08T00:43:07.268Z,4.10
2023-04-08T00:45:36.938Z,4.10
2023-04-08T00:48:07.486Z,3.90
2023-04-08T00:50:35.426Z,4.20
2023-04-08T00:53:03.708Z,3.90
2023-04-08T00:55:32.684Z,4.40
2023-04-08T00:58:01.301Z,4.10
2023-04-08T01:00:31.728Z,4.50
2023-04-08T01:03:39.095Z,5.17
2023-04-08T01:06:22.083Z,4.90
2023-04-08T01:08:55.171Z,5.10
2023-04-08T01:11:24.782Z,5.13
2023-04-08T01:13:59.802Z,5.30
2023-04-08T01:16:40.946Z,4.90
2023-04-08T01:19:19.827Z,5.00
2023-04-08T01:21:50.819Z,4.60
2023-04-08T01:24:29.877Z,5.03
2023-04-08T01:27:04.859Z,5.03
2023-04-08T01:29:37.626Z,5.67
2023-04-08T01:32:09.084Z,6.30
2023-04-08T01:34:44.840Z,5.40
2023-04-08T01:37:20.331Z,5.47
2023-04-08T01:39:53.652Z,5.70
2023-04-08T01:42:25.732Z,6.20
2023-04-08T01:45:00.401Z,6.13
2023-04-08T01:47:33.455Z,6.40
2023-04-08T01:50:03.787Z,6.90
2023-04-08T01:52:36.652Z,7.40
2023-04-08T01:55:07.862Z,7.07
2023-04-08T01:57:45.318Z,6.07
2023-04-08T02:00:23.493Z,6.63
2023-04-08T02:02:55.018Z,7.30
2023-04-08T02:05:25.051Z,8.37
2023-04-08T02:07:53.617Z,8.47
2023-04-08T02:10:35.737Z,8.07
2023-04-08T02:13:11.834Z,7.50
2023-04-08T02:15:48.787Z,9.77
2023-04-08T02:18:37.951Z,10.50
2023-04-08T02:21:35.339Z,8.70
2023-04-08T02:24:09.674Z,9.80
2023-04-08T02:26:41.686Z,10.23
2023-04-08T02:29:22.008Z,10.40
2023-04-08T02:31:55.023Z,11.53
2023-04-08T02:34:26.067Z,10.77
2023-04-08T02:37:02.640Z,10.50
2023-04-08T02:39:34.509Z,11.83
2023-04-08T02:42:03.408Z,11.00
2023-04-08T02:44:37.921Z,10.60
2023-04-08T02:47:10.088Z,12.07
2023-04-08T02:49:43.800Z,11.70
2023-04-08T02:52:19.723Z,11.97
2023-04-08T02:54:53.296Z,11.57
2023-04-08T02:57:26.045Z,12.97
2023-04-08T03:02:54.069Z,12.00
2023-04-08T03:05:30.152Z,12.77
2023-04-08T03:07:59.994Z,14.33
2023-04-08T03:10:28.513Z,12.93
2023-04-08T03:13:11.342Z,12.23
2023-04-08T03:15:45.589Z,12.70
2023-04-08T03:18:14.790Z,12.57
2023-04-08T03:20:47.649Z,12.50
2023-04-08T03:23:20.423Z,11.50
2023-04-08T03:25:50.362Z,11.83
2023-04-08T03:28:21.661Z,11.67
2023-04-08T03:30:58.605Z,12.17
2023-04-08T03:33:43.151Z,12.53
2023-04-08T03:36:12.494Z,12.10
2023-04-08T03:38:40.518Z,12.37
2023-04-08T03:41:11.878Z,12.50
2023-04-08T03:43:47.623Z,13.20
2023-04-08T03:46:23.327Z,13.40
2023-04-08T03:49:01.400Z,13.60
2023-04-08T03:51:32.946Z,13.00
2023-04-08T03:54:08.981Z,14.27
2023-04-08T03:56:37.527Z,13.97
2023-04-08T03:59:08.211Z,14.50
2023-04-08T04:02:07.139Z,14.60
2023-04-08T04:04:42.371Z,14.50
2023-04-08T04:07:14.878Z,14.77
2023-04-08T04:09:53.809Z,14.23
2023-04-08T04:12:23.681Z,14.63
2023-04-08T04:14:54.232Z,12.50
2023-04-08T04:17:24.582Z,12.33
2023-04-08T04:19:57.432Z,11.23
2023-04-08T04:22:32.854Z,11.50
2023-04-08T04:25:13.969Z,11.73
2023-04-08T04:27:43.755Z,11.47
2023-04-08T04:30:26.277Z,11.90
2023-04-08T04:32:58.717Z,11.10
2023-04-08T04:35:30.401Z,10.30
2023-04-08T04:38:20.416Z,10.93
2023-04-08T04:40:52.335Z,10.37
2023-04-08T04:43:22.350Z,10.47
2023-04-08T04:45:58.357Z,10.53
2023-04-08T04:48:32.482Z,10.53
2023-04-08T04:51:03.358Z,11.30
2023-04-08T04:53:32.034Z,11.60
2023-04-08T04:56:03.428Z,12.03
2023-04-08T04:58:37.544Z,11.40
2023-04-08T05:01:06.667Z,12.30
2023-04-08T05:03:37.650Z,11.80
2023-04-08T05:06:06.513Z,11.83
2023-04-08T05:08:35.089Z,12.20
2023-04-08T05:11:04.783Z,11.90
2023-04-08T05:13:34.434Z,10.97
2023-04-08T05:16:05.764Z,11.20
2023-04-08T05:18:37.517Z,11.90
2023-04-08T05:21:06.110Z,12.10
2023-04-08T05:23:34.054Z,12.67
2023-04-08T05:26:02.675Z,12.73
2023-04-08T05:28:32.807Z,11.90
2023-04-08T05:31:01.292Z,12.03
2023-04-08T05:33:29.618Z,11.90
2023-04-08T05:35:59.639Z,12.30
2023-04-08T05:38:28.712Z,12.13
2023-04-08T05:40:57.186Z,12.47
2023-04-08T05:43:25.596Z,12.53
2023-04-08T05:45:56.282Z,11.60
2023-04-08T05:48:28.204Z,11.67
2023-04-08T05:50:56.488Z,11.97
2023-04-08T05:53:26.856Z,12.87
2023-04-08T05:55:55.020Z,11.10
2023-04-08T05:58:24.553Z,10.83
2023-04-08T06:00:53.282Z,11.07
2023-04-08T06:03:22.374Z,11.67
2023-04-08T06:05:50.928Z,10.80
2023-04-08T06:08:22.268Z,10.93
2023-04-08T06:10:53.849Z,10.43
2023-04-08T06:13:28.451Z,11.23
2023-04-08T06:16:00.301Z,11.63
2023-04-08T06:18:29.377Z,11.23
2023-04-08T06:21:03.657Z,10.70
2023-04-08T06:23:37.940Z,10.53
2023-04-08T06:26:08.051Z,10.40
2023-04-08T06:28:37.781Z,10.53
2023-04-08T06:31:06.352Z,10.70
2023-04-08T06:33:35.390Z,10.43
2023-04-08T06:36:05.182Z,10.33
2023-04-08T06:38:33.489Z,10.30
2023-04-08T06:41:04.245Z,9.97
2023-04-08T06:43:34.176Z,9.67
2023-04-08T06:46:09.428Z,9.50
2023-04-08T06:48:42.954Z,9.60
2023-04-08T06:51:13.142Z,9.90
2023-04-08T06:53:44.799Z,10.47
2023-04-08T06:56:13.280Z,10.30
2023-04-08T06:58:43.433Z,9.87
2023-04-08T07:01:13.954Z,10.03
2023-04-08T07:03:42.306Z,10.10
2023-04-08T07:06:13.072Z,10.20
2023-04-08T07:08:42.423Z,9.77
2023-04-08T07:11:14.164Z,9.97
2023-04-08T07:13:45.584Z,9.63
2023-04-08T07:16:25.410Z,10.40
2023-04-08T07:18:55.439Z,9.90
2023-04-08T07:21:33.356Z,9.20
2023-04-08T07:24:12.319Z,9.50
2023-04-08T07:26:44.728Z,9.83
2023-04-08T07:29:34.959Z,10.40
2023-04-08T07:32:04.589Z,9.63
2023-04-08T07:34:35.939Z,9.43
2023-04-08T07:37:06.731Z,9.27
2023-04-08T07:39:36.082Z,8.63
2023-04-08T07:42:05.605Z,9.50
2023-04-08T07:44:38.308Z,11.10
2023-04-08T07:47:08.411Z,9.93
2023-04-08T07:49:38.018Z,10.13
2023-04-08T07:52:06.709Z,9.60
2023-04-08T07:54:38.885Z,10.63
2023-04-08T07:57:08.414Z,9.97
2023-04-08T07:59:40.431Z,9.20
2023-04-08T08:02:11.487Z,8.93
2023-04-08T08:04:57.272Z,9.40
2023-04-08T08:07:27.331Z,9.43
2023-04-08T08:09:56.218Z,8.70
2023-04-08T08:12:25.015Z,8.43
2023-04-08T08:14:59.014Z,8.93
2023-04-08T08:17:30.554Z,8.53
2023-04-08T08:20:00.036Z,9.10
2023-04-08T08:22:54.254Z,8.97
2023-04-08T08:25:27.374Z,9.33
2023-04-08T08:27:58.196Z,9.10
2023-04-08T08:30:29.653Z,9.40
2023-04-08T08:33:02.089Z,9.10
2023-04-08T08:35:34.876Z,9.30
2023-04-08T08:38:05.386Z,10.60
2023-04-08T08:40:34.299Z,9.73
2023-04-08T08:43:02.799Z,9.30
2023-04-08T08:45:32.577Z,10.10
2023-04-08T08:48:01.333Z,9.63
2023-04-08T08:50:29.386Z,9.83
2023-04-08T08:53:00.532Z,10.40
2023-04-08T08:55:56.762Z,10.47
2023-04-08T08:58:23.979Z,9.73
2023-04-08T09:00:54.191Z,10.40
2023-04-08T09:03:25.048Z,9.57
2023-04-08T09:06:08.381Z,9.70
2023-04-08T09:08:40.656Z,9.37
2023-04-08T09:11:23.022Z,9.90
2023-04-08T09:13:55.321Z,9.90
2023-04-08T09:16:30.672Z,9.47
2023-04-08T09:19:10.662Z,9.73
2023-04-08T09:21:42.833Z,9.20
2023-04-08T09:24:30.418Z,9.03
2023-04-08T09:27:04.670Z,8.40
2023-04-08T09:29:35.924Z,8.97
2023-04-08T09:32:08.766Z,7.40
2023-04-08T09:34:38.074Z,6.70
2023-04-08T09:37:09.322Z,6.60
2023-04-08T09:39:38.532Z,6.63
2023-04-08T09:42:13.345Z,6.60
2023-04-08T09:44:44.714Z,6.43
2023-04-08T09:47:35.152Z,7.10
2023-04-08T09:50:08.949Z,6.93
2023-04-08T09:52:46.291Z,6.80
2023-04-08T09:55:16.687Z,6.07
2023-04-08T09:57:55.275Z,6.50
2023-04-08T10:00:39.481Z,7.10
2023-04-08T10:03:16.438Z,7.20
2023-04-08T10:05:48.486Z,6.63
2023-04-08T10:08:20.634Z,6.67
2023-04-08T10:10:48.788Z,7.20
2023-04-08T10:13:19.324Z,6.40
2023-04-08T10:15:49.295Z,6.20
2023-04-08T10:18:34.628Z,7.00
2023-04-08T10:21:03.676Z,6.30
2023-04-08T10:23:59.382Z,6.57
2023-04-08T10:26:34.440Z,6.67
2023-04-08T10:29:34.715Z,6.97
2023-04-08T10:32:03.311Z,7.17
2023-04-08T10:34:33.501Z,6.57
2023-04-08T10:37:04.136Z,6.77
2023-04-08T10:39:38.289Z,6.80
2023-04-08T10:42:10.152Z,7.57
2023-04-08T10:44:41.238Z,6.93
2023-04-08T10:47:09.276Z,7.17
2023-04-08T10:49:40.500Z,7.03
2023-04-08T10:52:10.803Z,7.40
2023-04-08T10:54:40.710Z,7.17
2023-04-08T10:57:10.435Z,6.90
2023-04-08T10:59:40.388Z,7.10
2023-04-08T11:02:17.382Z,6.93
2023-04-08T11:04:48.458Z,6.90
2023-04-08T11:07:17.507Z,6.67
2023-04-08T11:09:45.967Z,6.87
2023-04-08T11:12:18.363Z,6.70
2023-04-08T11:14:48.513Z,7.20
2023-04-08T11:17:17.935Z,6.77
2023-04-08T11:20:02.778Z,7.07
2023-04-08T11:22:33.784Z,7.00
2023-04-08T11:25:08.204Z,7.47
2023-04-08T11:27:36.536Z,7.20
2023-04-08T11:30:14.657Z,7.73
2023-04-08T11:32:43.190Z,7.50
2023-04-08T11:35:16.194Z,7.27
2023-04-08T11:37:47.536Z,7.83
2023-04-08T11:40:24.967Z,6.90
2023-04-08T11:42:54.713Z,7.57
2023-04-08T11:45:27.058Z,7.33
2023-04-08T11:47:55.434Z,7.33
2023-04-08T11:50:32.498Z,6.90
2023-04-08T11:53:03.101Z,7.07
2023-04-08T11:55:35.296Z,7.10
2023-04-08T11:58:05.114Z,6.90
2023-04-08T12:00:34.720Z,8.17
2023-04-08T12:03:03.767Z,8.13
2023-04-08T12:05:33.775Z,8.27
2023-04-08T12:08:03.608Z,7.57
2023-04-08T12:10:33.262Z,7.60
2023-04-08T12:13:03.104Z,9.07
2023-04-08T12:15:33.449Z,8.13
2023-04-08T12:18:03.131Z,9.33
2023-04-08T12:20:33.429Z,8.77
2023-04-08T12:23:01.656Z,8.00
2023-04-08T12:25:31.560Z,8.00
2023-04-08T12:28:01.899Z,8.33
2023-04-08T12:30:30.804Z,8.03
2023-04-08T12:33:00.570Z,9.37
2023-04-08T12:35:29.684Z,9.13
2023-04-08T12:37:59.396Z,8.80
2023-04-08T12:40:28.926Z,8.77
2023-04-08T12:42:57.855Z,8.63
2023-04-08T12:45:25.952Z,9.03
2023-04-08T12:47:56.961Z,9.43
2023-04-08T12:50:25.914Z,9.17
2023-04-08T12:52:55.657Z,8.87
2023-04-08T12:55:26.202Z,8.70
2023-04-08T12:57:55.539Z,8.37
2023-04-08T13:00:28.837Z,8.27
2023-04-08T13:02:58.699Z,8.83
2023-04-08T13:05:42.034Z,8.43
2023-04-08T13:08:13.353Z,8.93
2023-04-08T13:10:43.664Z,8.20
2023-04-08T13:13:15.010Z,8.03
2023-04-08T13:15:43.940Z,7.70
2023-04-08T13:18:14.621Z,7.87
2023-04-08T13:20:43.132Z,8.10
2023-04-08T13:23:13.486Z,8.37
2023-04-08T13:25:51.328Z,7.80
2023-04-08T13:28:19.482Z,8.90
2023-04-08T13:30:49.528Z,12.50
2023-04-08T13:33:17.867Z,7.93
2023-04-08T13:35:47.060Z,7.90
2023-04-08T13:38:23.140Z,8.70
2023-04-08T13:40:54.269Z,9.57
2023-04-08T13:43:24.820Z,11.87
2023-04-08T13:45:54.741Z,9.70
2023-04-08T13:48:25.871Z,9.60
2023-04-08T13:50:55.166Z,8.60
2023-04-08T13:53:25.314Z,12.20
2023-04-08T13:55:56.116Z,10.83
2023-04-08T13:58:24.650Z,12.77
2023-04-08T14:00:54.451Z,11.83
2023-04-08T14:03:22.982Z,11.90
2023-04-08T14:05:51.499Z,10.87
2023-04-08T14:08:25.548Z,11.33
2023-04-08T14:10:58.491Z,10.87
2023-04-08T14:13:26.593Z,8.70
2023-04-08T14:15:59.384Z,8.70
2023-04-08T14:18:29.558Z,8.67
2023-04-08T14:20:59.928Z,8.80
2023-04-08T14:23:28.048Z,9.10
2023-04-08T14:26:02.458Z,8.97
2023-04-08T14:28:31.187Z,8.47
2023-04-08T14:31:00.058Z,9.40
2023-04-08T14:33:29.250Z,9.10
2023-04-08T14:36:00.328Z,9.73
2023-04-08T14:38:31.626Z,9.70
2023-04-08T14:41:03.494Z,10.17
2023-04-08T14:43:33.998Z,9.97
2023-04-08T14:46:02.352Z,10.60
2023-04-08T14:48:38.611Z,10.33
2023-04-08T14:51:11.635Z,10.30
2023-04-08T14:53:39.912Z,9.93
2023-04-08T14:56:31.068Z,10.40
2023-04-08T14:59:01.194Z,10.17
2023-04-08T15:01:32.531Z,11.63
2023-04-08T15:04:04.310Z,10.23
2023-04-08T15:06:35.145Z,11.70
2023-04-08T15:09:09.386Z,11.90
2023-04-08T15:11:39.195Z,11.10
2023-04-08T15:14:13.215Z,11.87
2023-04-08T15:16:42.429Z,11.50
2023-04-08T15:19:14.609Z,11.80
2023-04-08T15:21:42.790Z,11.67
2023-04-08T15:24:13.528Z,10.67
2023-04-08T15:26:56.910Z,9.77
2023-04-08T15:29:28.944Z,9.30
2023-04-08T15:31:58.048Z,10.00
2023-04-08T15:34:29.430Z,10.17
2023-04-08T15:36:58.815Z,10.10
2023-04-08T15:39:36.410Z,10.07
2023-04-08T15:42:09.614Z,10.13
2023-04-08T15:44:39.217Z,10.60
2023-04-08T15:47:09.663Z,10.77
2023-04-08T15:49:40.585Z,10.73
2023-04-08T15:52:10.706Z,10.73
2023-04-08T15:54:38.730Z,10.50
2023-04-08T15:57:11.007Z,10.47
2023-04-08T15:59:55.527Z,10.63
2023-04-08T16:02:25.725Z,11.53
2023-04-08T16:04:53.680Z,11.03
2023-04-08T16:07:23.183Z,10.90
2023-04-08T16:09:51.302Z,10.67
2023-04-08T16:12:25.685Z,10.60
2023-04-08T16:14:54.403Z,10.80
2023-04-08T16:17:23.490Z,11.30
2023-04-08T16:19:51.645Z,10.90
2023-04-08T16:22:20.801Z,10.30
2023-04-08T16:24:53.197Z,11.20
2023-04-08T16:27:24.573Z,11.00
2023-04-08T16:29:54.452Z,11.60
2023-04-08T16:32:22.929Z,11.23
2023-04-08T16:34:55.355Z,12.40
2023-04-08T16:37:24.304Z,11.70
2023-04-08T16:39:52.840Z,11.17
2023-04-08T16:42:22.697Z,10.37
2023-04-08T16:44:52.725Z,10.93
2023-04-08T16:47:30.134Z,9.13
2023-04-08T16:50:00.215Z,10.67
2023-04-08T16:52:28.743Z,8.07
2023-04-08T16:54:57.980Z,8.60
2023-04-08T16:57:29.006Z,7.03
2023-04-08T16:59:57.387Z,6.53
2023-04-08T17:02:26.270Z,6.23
2023-04-08T17:04:54.670Z,5.63
2023-04-08T17:07:23.232Z,4.97
2023-04-08T17:09:52.909Z,4.67
2023-04-08T17:12:22.216Z,3.83
2023-04-08T17:14:53.317Z,3.83
2023-04-08T17:17:21.702Z,3.20
2023-04-08T17:19:52.485Z,3.33
2023-04-08T17:22:21.564Z,3.27
2023-04-08T17:24:53.207Z,3.00
2023-04-08T17:27:22.395Z,3.30
2023-04-08T17:29:57.764Z,2.83
2023-04-08T17:32:26.494Z,4.17
2023-04-08T17:34:57.231Z,3.20
2023-04-08T17:37:25.713Z,3.30
2023-04-08T17:39:54.699Z,3.57
2023-04-08T17:42:23.813Z,3.20
2023-04-08T17:45:00.368Z,3.40
2023-04-08T17:47:31.089Z,3.47
2023-04-08T17:49:59.452Z,3.53
2023-04-08T17:52:28.993Z,3.50
2023-04-08T17:54:58.316Z,4.20
2023-04-08T17:57:26.753Z,3.80
2023-04-08T17:59:57.538Z,3.50
2023-04-08T18:02:29.088Z,3.70
2023-04-08T18:04:58.696Z,3.80
2023-04-08T18:07:30.589Z,3.73
2023-04-08T18:09:58.637Z,3.63
2023-04-08T18:12:30.577Z,3.60
2023-04-08T18:15:01.563Z,3.57
2023-04-08T18:17:29.514Z,4.13
2023-04-08T18:19:59.695Z,4.00
2023-04-08T18:22:29.989Z,4.13
2023-04-08T18:24:58.024Z,4.37
2023-04-08T18:27:26.487Z,4.33
2023-04-08T18:29:56.940Z,4.20
2023-04-08T18:32:28.568Z,4.47
2023-04-08T18:34:59.677Z,3.83
2023-04-08T18:37:30.899Z,3.80
2023-04-08T18:40:01.661Z,4.23
2023-04-08T18:42:30.975Z,3.63
2023-04-08T18:44:59.325Z,4.30
2023-04-08T18:47:33.542Z,4.10
2023-04-08T18:50:01.741Z,3.73
2023-04-08T18:52:29.866Z,3.80
2023-04-08T18:55:01.370Z,3.53
2023-04-08T18:57:29.321Z,3.63
2023-04-08T19:00:00.501Z,3.70
2023-04-08T19:02:31.998Z,3.90
2023-04-08T19:05:00.891Z,3.63
2023-04-08T19:07:30.152Z,3.90
2023-04-08T19:10:01.805Z,3.70
2023-04-08T19:12:31.458Z,4.10
2023-04-08T19:15:04.015Z,3.90
2023-04-08T19:17:34.094Z,4.37
2023-04-08T19:20:03.849Z,4.07
2023-04-08T19:22:32.081Z,4.23
2023-04-08T19:25:02.001Z,4.90
2023-04-08T19:27:30.894Z,4.40
2023-04-08T19:30:02.387Z,4.10
2023-04-08T19:32:35.687Z,4.27
2023-04-08T19:35:08.886Z,4.80
2023-04-08T19:37:37.841Z,4.73
2023-04-08T19:40:11.749Z,4.63
2023-04-08T19:42:39.783Z,5.17
2023-04-08T19:45:10.977Z,5.23
2023-04-08T19:47:43.533Z,5.57
2023-04-08T19:50:13.652Z,5.43
2023-04-08T19:52:44.710Z,5.47
2023-04-08T19:55:15.118Z,5.50
2023-04-08T19:57:44.504Z,5.73
2023-04-08T20:00:14.341Z,5.20
2023-04-08T20:02:46.412Z,5.03
2023-04-08T20:05:17.939Z,5.30
2023-04-08T20:07:46.620Z,5.30
2023-04-08T20:10:16.280Z,5.67
2023-04-08T20:12:45.030Z,5.33
2023-04-08T20:15:23.567Z,5.87
2023-04-08T20:17:54.592Z,5.93
2023-04-08T20:20:23.205Z,5.77
2023-04-08T20:22:52.595Z,6.47
2023-04-08T20:25:21.824Z,6.00
2023-04-08T20:27:59.449Z,6.10
2023-04-08T20:30:27.918Z,6.33
2023-04-08T20:33:01.302Z,6.43
2023-04-08T20:35:32.733Z,6.23
2023-04-08T20:38:02.806Z,6.90
2023-04-08T20:40:34.590Z,6.40
2023-04-08T20:43:03.248Z,6.77
2023-04-08T20:45:36.461Z,7.23
2023-04-08T20:48:14.840Z,6.63
2023-04-08T20:50:44.243Z,6.87
2023-04-08T20:53:20.498Z,7.50
2023-04-08T20:55:48.482Z,7.20
2023-04-08T20:58:18.394Z,7.27
2023-04-08T21:00:47.956Z,7.27
2023-04-08T21:03:20.711Z,7.73
2023-04-08T21:05:50.294Z,6.87
2023-04-08T21:08:18.228Z,7.33
2023-04-08T21:10:46.106Z,7.50
2023-04-08T21:13:14.200Z,7.80
2023-04-08T21:15:43.777Z,8.33
2023-04-08T21:18:12.809Z,8.30
2023-04-08T21:20:42.664Z,7.87
2023-04-08T21:23:14.576Z,7.77
2023-04-08T21:25:43.052Z,8.43
2023-04-08T21:28:19.216Z,7.87
2023-04-08T21:30:49.264Z,7.67
2023-04-08T21:33:19.435Z,7.57
2023-04-08T21:35:49.250Z,7.83
2023-04-08T21:38:18.398Z,8.23
2023-04-08T21:40:49.461Z,8.30
2023-04-08T21:43:18.448Z,7.87
2023-04-08T21:45:46.469Z,8.83
2023-04-08T21:48:14.732Z,8.90
2023-04-08T21:50:45.587Z,7.80
2023-04-08T21:53:15.754Z,8.33
2023-04-08T21:55:46.874Z,7.40
2023-04-08T21:58:15.142Z,8.93
2023-04-08T22:00:45.406Z,8.37
2023-04-08T22:03:14.265Z,8.03
2023-04-08T22:05:43.330Z,8.13
2023-04-08T22:08:13.827Z,7.77
2023-04-08T22:10:44.685Z,7.90
2023-04-08T22:13:17.413Z,8.47
2023-04-08T22:15:46.431Z,7.40
2023-04-08T22:18:14.259Z,7.63
2023-04-08T22:20:42.465Z,8.13
2023-04-08T22:23:10.759Z,7.43
2023-04-08T22:25:39.383Z,7.80
2023-04-08T22:28:09.437Z,8.10
2023-04-08T22:30:37.625Z,8.10
2023-04-08T22:33:05.898Z,8.87
2023-04-08T22:35:35.003Z,7.60
2023-04-08T22:38:08.960Z,7.70
2023-04-08T22:40:38.934Z,8.00
2023-04-08T22:43:08.290Z,7.83
2023-04-08T22:45:37.695Z,8.00
2023-04-08T22:48:06.649Z,7.90
2023-04-08T22:50:36.321Z,7.90
2023-04-08T22:53:04.567Z,7.90
2023-04-08T22:55:33.639Z,8.33
2023-04-08T22:58:08.591Z,8.73
2023-04-08T23:00:37.807Z,8.63
2023-04-08T23:03:07.772Z,8.03
2023-04-08T23:05:40.178Z,7.83
2023-04-08T23:08:10.011Z,8.40
2023-04-08T23:10:39.868Z,8.90
2023-04-08T23:13:09.968Z,8.00
2023-04-08T23:15:38.031Z,8.63
2023-04-08T23:18:09.334Z,8.00
2023-04-08T23:20:40.332Z,7.53
2023-04-08T23:23:08.558Z,7.97
2023-04-08T23:25:37.692Z,8.60
2023-04-08T23:28:07.435Z,8.40
2023-04-08T23:30:40.921Z,7.80
2023-04-08T23:33:10.319Z,8.60
2023-04-08T23:35:40.315Z,8.10
2023-04-08T23:38:08.658Z,7.70
2023-04-08T23:40:36.780Z,8.50
2023-04-08T23:43:07.084Z,7.90
2023-04-08T23:45:36.938Z,8.70
2023-04-08T23:48:10.064Z,8.30
2023-04-08T23:50:41.319Z,7.93
2023-04-08T23:53:09.412Z,8.13
2023-04-08T23:55:39.347Z,8.53
2023-04-08T23:58:07.295Z,8.33
